sensor_id;sensor_type;location;lat;lon;timestamp;temperature;humidity
7576;DHT22;3829;50.798;4.358;2022-12-07T00:01:11;5.70;99.90
7576;DHT22;3829;50.798;4.358;2022-12-07T00:03:38;5.70;99.90
7576;DHT22;3829;50.798;4.358;2022-12-07T00:06:05;5.70;99.90
7576;DHT22;3829;50.798;4.358;2022-12-07T00:08:31;5.70;99.90
7576;DHT22;3829;50.798;4.358;2022-12-07T00:11:20;5.60;99.90
7576;DHT22;3829;50.798;4.358;2022-12-07T00:13:50;5.60;99.90
7576;DHT22;3829;50.798;4.358;2022-12-07T00:16:20;5.60;99.90
7576;DHT22;3829;50.798;4.358;2022-12-07T00:18:46;5.70;99.90
7576;DHT22;3829;50.798;4.358;2022-12-07T00:21:19;5.60;99.90
7576;DHT22;3829;50.798;4.358;2022-12-07T00:23:46;5.60;99.90
7576;DHT22;3829;50.798;4.358;2022-12-07T00:26:22;5.60;99.90
7576;DHT22;3829;50.798;4.358;2022-12-07T00:28:50;5.60;99.90
7576;DHT22;3829;50.798;4.358;2022-12-07T00:31:18;5.60;99.90
7576;DHT22;3829;50.798;4.358;2022-12-07T00:33:44;5.50;99.90
7576;DHT22;3829;50.798;4.358;2022-12-07T00:36:12;5.50;99.90
7576;DHT22;3829;50.798;4.358;2022-12-07T00:38:38;5.50;99.90
7576;DHT22;3829;50.798;4.358;2022-12-07T00:43:37;5.40;99.90
7576;DHT22;3829;50.798;4.358;2022-12-07T00:46:03;5.30;99.90
7576;DHT22;3829;50.798;4.358;2022-12-07T00:48:29;5.20;99.90
7576;DHT22;3829;50.798;4.358;2022-12-07T00:50:55;5.20;99.90
7576;DHT22;3829;50.798;4.358;2022-12-07T00:53:21;5.20;99.90
7576;DHT22;3829;50.798;4.358;2022-12-07T00:55:47;5.10;99.90
7576;DHT22;3829;50.798;4.358;2022-12-07T00:58:13;5.10;99.90
7576;DHT22;3829;50.798;4.358;2022-12-07T01:00:41;5.10;99.90
7576;DHT22;3829;50.798;4.358;2022-12-07T01:03:09;5.10;99.90
7576;DHT22;3829;50.798;4.358;2022-12-07T01:05:35;5.10;99.90
7576;DHT22;3829;50.798;4.358;2022-12-07T01:08:01;5.20;99.90
7576;DHT22;3829;50.798;4.358;2022-12-07T01:10:27;5.20;99.90
7576;DHT22;3829;50.798;4.358;2022-12-07T01:12:53;5.10;99.90
7576;DHT22;3829;50.798;4.358;2022-12-07T01:15:19;5.20;99.90
7576;DHT22;3829;50.798;4.358;2022-12-07T01:17:44;5.20;99.90
7576;DHT22;3829;50.798;4.358;2022-12-07T01:20:11;5.20;99.90
7576;DHT22;3829;50.798;4.358;2022-12-07T01:22:43;5.20;99.90
7576;DHT22;3829;50.798;4.358;2022-12-07T01:25:10;5.20;99.90
7576;DHT22;3829;50.798;4.358;2022-12-07T01:27:37;5.20;99.90
7576;DHT22;3829;50.798;4.358;2022-12-07T01:30:04;5.10;99.90
7576;DHT22;3829;50.798;4.358;2022-12-07T01:32:30;5.20;99.90
7576;DHT22;3829;50.798;4.358;2022-12-07T01:34:56;5.20;99.90
7576;DHT22;3829;50.798;4.358;2022-12-07T01:37:22;5.20;99.90
7576;DHT22;3829;50.798;4.358;2022-12-07T01:39:51;5.30;99.90
7576;DHT22;3829;50.798;4.358;2022-12-07T01:42:17;5.40;99.90
7576;DHT22;3829;50.798;4.358;2022-12-07T01:47:49;5.20;99.90
7576;DHT22;3829;50.798;4.358;2022-12-07T01:50:16;5.10;99.90
7576;DHT22;3829;50.798;4.358;2022-12-07T01:52:43;5.10;99.90
7576;DHT22;3829;50.798;4.358;2022-12-07T01:55:12;5.10;99.90
7576;DHT22;3829;50.798;4.358;2022-12-07T01:57:42;5.10;99.90
7576;DHT22;3829;50.798;4.358;2022-12-07T02:00:10;5.10;99.90
7576;DHT22;3829;50.798;4.358;2022-12-07T02:02:54;5.10;99.90
7576;DHT22;3829;50.798;4.358;2022-12-07T02:05:22;5.00;99.90
7576;DHT22;3829;50.798;4.358;2022-12-07T02:07:49;5.10;99.90
7576;DHT22;3829;50.798;4.358;2022-12-07T02:10:17;5.10;99.90
7576;DHT22;3829;50.798;4.358;2022-12-07T02:12:48;5.20;99.90
7576;DHT22;3829;50.798;4.358;2022-12-07T02:15:15;5.30;99.90
7576;DHT22;3829;50.798;4.358;2022-12-07T02:17:52;5.40;99.90
7576;DHT22;3829;50.798;4.358;2022-12-07T02:30:00;5.40;99.90
7576;DHT22;3829;50.798;4.358;2022-12-07T02:32:30;5.30;99.90
7576;DHT22;3829;50.798;4.358;2022-12-07T02:35:06;5.30;99.90
7576;DHT22;3829;50.798;4.358;2022-12-07T02:42:55;5.30;99.90
7576;DHT22;3829;50.798;4.358;2022-12-07T02:45:23;5.30;99.90
7576;DHT22;3829;50.798;4.358;2022-12-07T02:47:53;5.40;99.90
7576;DHT22;3829;50.798;4.358;2022-12-07T02:50:21;5.30;99.90
7576;DHT22;3829;50.798;4.358;2022-12-07T02:52:47;5.30;99.90
7576;DHT22;3829;50.798;4.358;2022-12-07T02:55:14;5.40;99.90
7576;DHT22;3829;50.798;4.358;2022-12-07T03:00:18;5.40;99.90
7576;DHT22;3829;50.798;4.358;2022-12-07T03:03:00;5.30;99.90
7576;DHT22;3829;50.798;4.358;2022-12-07T03:05:43;5.30;99.90
7576;DHT22;3829;50.798;4.358;2022-12-07T03:11:00;5.20;99.90
7576;DHT22;3829;50.798;4.358;2022-12-07T03:13:48;5.10;99.90
7576;DHT22;3829;50.798;4.358;2022-12-07T03:16:25;4.90;99.90
7576;DHT22;3829;50.798;4.358;2022-12-07T03:18:56;4.90;99.90
7576;DHT22;3829;50.798;4.358;2022-12-07T03:21:37;4.90;99.90
7576;DHT22;3829;50.798;4.358;2022-12-07T03:24:09;4.90;99.90
7576;DHT22;3829;50.798;4.358;2022-12-07T03:26:39;4.80;99.90
7576;DHT22;3829;50.798;4.358;2022-12-07T03:29:15;4.70;99.90
7576;DHT22;3829;50.798;4.358;2022-12-07T03:31:47;4.70;99.90
7576;DHT22;3829;50.798;4.358;2022-12-07T03:34:21;4.80;99.90
7576;DHT22;3829;50.798;4.358;2022-12-07T03:37:04;4.80;99.90
7576;DHT22;3829;50.798;4.358;2022-12-07T03:39:39;4.80;99.90
7576;DHT22;3829;50.798;4.358;2022-12-07T03:42:08;4.70;99.90
7576;DHT22;3829;50.798;4.358;2022-12-07T03:44:35;4.70;99.90
7576;DHT22;3829;50.798;4.358;2022-12-07T03:47:31;4.80;99.90
7576;DHT22;3829;50.798;4.358;2022-12-07T03:50:19;4.80;99.90
7576;DHT22;3829;50.798;4.358;2022-12-07T03:52:59;4.80;99.90
7576;DHT22;3829;50.798;4.358;2022-12-07T03:55:33;4.90;99.90
7576;DHT22;3829;50.798;4.358;2022-12-07T03:58:07;5.10;99.90
7576;DHT22;3829;50.798;4.358;2022-12-07T04:00:35;5.00;99.90
7576;DHT22;3829;50.798;4.358;2022-12-07T04:03:01;4.90;99.90
7576;DHT22;3829;50.798;4.358;2022-12-07T04:05:26;4.80;99.90
7576;DHT22;3829;50.798;4.358;2022-12-07T04:07:52;4.80;99.90
7576;DHT22;3829;50.798;4.358;2022-12-07T04:10:18;4.70;99.90
7576;DHT22;3829;50.798;4.358;2022-12-07T04:12:44;4.60;99.90
7576;DHT22;3829;50.798;4.358;2022-12-07T04:15:10;4.50;99.90
7576;DHT22;3829;50.798;4.358;2022-12-07T04:17:35;4.40;99.90
7576;DHT22;3829;50.798;4.358;2022-12-07T04:20:02;4.30;99.90
7576;DHT22;3829;50.798;4.358;2022-12-07T04:22:29;4.30;99.90
7576;DHT22;3829;50.798;4.358;2022-12-07T04:24:55;4.30;99.90
7576;DHT22;3829;50.798;4.358;2022-12-07T04:27:20;4.40;99.90
7576;DHT22;3829;50.798;4.358;2022-12-07T04:29:46;4.40;99.90
7576;DHT22;3829;50.798;4.358;2022-12-07T04:32:12;4.30;99.90
7576;DHT22;3829;50.798;4.358;2022-12-07T04:34:37;4.30;99.90
7576;DHT22;3829;50.798;4.358;2022-12-07T04:37:03;4.30;99.90
7576;DHT22;3829;50.798;4.358;2022-12-07T04:39:32;4.50;99.90
7576;DHT22;3829;50.798;4.358;2022-12-07T04:41:58;4.50;99.90
7576;DHT22;3829;50.798;4.358;2022-12-07T04:44:24;4.50;99.90
7576;DHT22;3829;50.798;4.358;2022-12-07T04:46:51;4.60;99.90
7576;DHT22;3829;50.798;4.358;2022-12-07T04:49:17;4.70;99.90
7576;DHT22;3829;50.798;4.358;2022-12-07T04:51:43;4.70;99.90
7576;DHT22;3829;50.798;4.358;2022-12-07T04:54:10;4.70;99.90
7576;DHT22;3829;50.798;4.358;2022-12-07T04:56:36;4.80;99.90
7576;DHT22;3829;50.798;4.358;2022-12-07T04:59:03;4.90;99.90
7576;DHT22;3829;50.798;4.358;2022-12-07T05:01:29;4.90;99.90
7576;DHT22;3829;50.798;4.358;2022-12-07T05:03:54;5.10;99.90
7576;DHT22;3829;50.798;4.358;2022-12-07T05:06:20;5.10;99.90
7576;DHT22;3829;50.798;4.358;2022-12-07T05:08:46;5.10;99.90
7576;DHT22;3829;50.798;4.358;2022-12-07T05:11:12;5.20;99.90
7576;DHT22;3829;50.798;4.358;2022-12-07T05:13:56;5.10;99.90
7576;DHT22;3829;50.798;4.358;2022-12-07T05:16:22;5.00;99.90
7576;DHT22;3829;50.798;4.358;2022-12-07T05:18:48;4.90;99.90
7576;DHT22;3829;50.798;4.358;2022-12-07T05:21:13;4.80;99.90
7576;DHT22;3829;50.798;4.358;2022-12-07T05:23:39;4.80;99.90
7576;DHT22;3829;50.798;4.358;2022-12-07T05:26:05;4.70;99.90
7576;DHT22;3829;50.798;4.358;2022-12-07T05:28:30;4.70;99.90
7576;DHT22;3829;50.798;4.358;2022-12-07T05:30:56;4.60;99.90
7576;DHT22;3829;50.798;4.358;2022-12-07T05:33:21;4.70;99.90
7576;DHT22;3829;50.798;4.358;2022-12-07T05:35:47;4.80;99.90
7576;DHT22;3829;50.798;4.358;2022-12-07T05:38:12;4.80;99.90
7576;DHT22;3829;50.798;4.358;2022-12-07T05:40:38;4.80;99.90
7576;DHT22;3829;50.798;4.358;2022-12-07T05:43:04;4.80;99.90
7576;DHT22;3829;50.798;4.358;2022-12-07T05:45:29;4.90;99.90
7576;DHT22;3829;50.798;4.358;2022-12-07T05:47:55;5.00;99.90
7576;DHT22;3829;50.798;4.358;2022-12-07T05:50:21;5.00;99.90
7576;DHT22;3829;50.798;4.358;2022-12-07T05:52:46;5.00;99.90
7576;DHT22;3829;50.798;4.358;2022-12-07T05:55:13;5.00;99.90
7576;DHT22;3829;50.798;4.358;2022-12-07T05:57:38;4.90;99.90
7576;DHT22;3829;50.798;4.358;2022-12-07T06:00:05;4.90;99.90
7576;DHT22;3829;50.798;4.358;2022-12-07T06:02:30;4.90;99.90
7576;DHT22;3829;50.798;4.358;2022-12-07T06:04:56;4.90;99.90
7576;DHT22;3829;50.798;4.358;2022-12-07T06:07:22;4.90;99.90
7576;DHT22;3829;50.798;4.358;2022-12-07T06:09:47;4.90;99.90
7576;DHT22;3829;50.798;4.358;2022-12-07T06:12:14;4.90;99.90
7576;DHT22;3829;50.798;4.358;2022-12-07T06:14:58;4.90;99.90
7576;DHT22;3829;50.798;4.358;2022-12-07T06:17:24;4.80;99.90
7576;DHT22;3829;50.798;4.358;2022-12-07T06:19:50;4.90;99.90
7576;DHT22;3829;50.798;4.358;2022-12-07T06:22:15;4.90;99.90
7576;DHT22;3829;50.798;4.358;2022-12-07T06:24:41;4.90;99.90
7576;DHT22;3829;50.798;4.358;2022-12-07T06:27:07;4.80;99.90
7576;DHT22;3829;50.798;4.358;2022-12-07T06:29:33;4.70;99.90
7576;DHT22;3829;50.798;4.358;2022-12-07T06:31:59;4.60;99.90
7576;DHT22;3829;50.798;4.358;2022-12-07T06:34:26;4.70;99.90
7576;DHT22;3829;50.798;4.358;2022-12-07T06:36:52;4.70;99.90
7576;DHT22;3829;50.798;4.358;2022-12-07T06:39:20;4.70;99.90
7576;DHT22;3829;50.798;4.358;2022-12-07T06:41:47;4.70;99.90
7576;DHT22;3829;50.798;4.358;2022-12-07T06:44:13;4.70;99.90
7576;DHT22;3829;50.798;4.358;2022-12-07T06:46:38;4.60;99.90
7576;DHT22;3829;50.798;4.358;2022-12-07T06:49:04;4.70;99.90
7576;DHT22;3829;50.798;4.358;2022-12-07T06:51:31;4.70;99.90
7576;DHT22;3829;50.798;4.358;2022-12-07T06:53:57;4.70;99.90
7576;DHT22;3829;50.798;4.358;2022-12-07T06:56:22;4.60;99.90
7576;DHT22;3829;50.798;4.358;2022-12-07T06:58:48;4.60;99.90
7576;DHT22;3829;50.798;4.358;2022-12-07T07:01:16;4.60;99.90
7576;DHT22;3829;50.798;4.358;2022-12-07T07:03:43;4.70;99.90
7576;DHT22;3829;50.798;4.358;2022-12-07T07:06:09;4.70;99.90
7576;DHT22;3829;50.798;4.358;2022-12-07T07:08:37;4.70;99.90
7576;DHT22;3829;50.798;4.358;2022-12-07T07:11:03;4.80;99.90
7576;DHT22;3829;50.798;4.358;2022-12-07T07:13:29;4.70;99.90
7576;DHT22;3829;50.798;4.358;2022-12-07T07:15:55;4.70;99.90
7576;DHT22;3829;50.798;4.358;2022-12-07T07:18:20;4.50;99.90
7576;DHT22;3829;50.798;4.358;2022-12-07T07:20:46;4.50;99.90
7576;DHT22;3829;50.798;4.358;2022-12-07T07:23:12;4.60;99.90
7576;DHT22;3829;50.798;4.358;2022-12-07T07:25:38;4.50;99.90
7576;DHT22;3829;50.798;4.358;2022-12-07T07:28:04;4.60;99.90
7576;DHT22;3829;50.798;4.358;2022-12-07T07:30:30;4.60;99.90
7576;DHT22;3829;50.798;4.358;2022-12-07T07:33:00;4.60;99.90
7576;DHT22;3829;50.798;4.358;2022-12-07T07:35:28;4.80;99.90
7576;DHT22;3829;50.798;4.358;2022-12-07T07:37:54;4.90;99.90
7576;DHT22;3829;50.798;4.358;2022-12-07T07:40:19;5.00;99.90
7576;DHT22;3829;50.798;4.358;2022-12-07T07:42:52;5.00;99.90
7576;DHT22;3829;50.798;4.358;2022-12-07T07:45:19;5.10;99.90
7576;DHT22;3829;50.798;4.358;2022-12-07T07:47:45;5.10;99.90
7576;DHT22;3829;50.798;4.358;2022-12-07T07:50:11;5.10;99.90
7576;DHT22;3829;50.798;4.358;2022-12-07T07:52:36;5.20;99.90
7576;DHT22;3829;50.798;4.358;2022-12-07T07:55:03;5.30;99.90
7576;DHT22;3829;50.798;4.358;2022-12-07T07:57:29;5.40;99.90
7576;DHT22;3829;50.798;4.358;2022-12-07T07:59:55;5.50;99.90
7576;DHT22;3829;50.798;4.358;2022-12-07T08:02:21;5.50;99.90
7576;DHT22;3829;50.798;4.358;2022-12-07T08:04:47;5.50;99.90
7576;DHT22;3829;50.798;4.358;2022-12-07T08:07:13;5.50;99.90
7576;DHT22;3829;50.798;4.358;2022-12-07T08:09:39;5.50;99.90
7576;DHT22;3829;50.798;4.358;2022-12-07T08:12:08;5.50;99.90
7576;DHT22;3829;50.798;4.358;2022-12-07T08:14:34;5.30;99.90
7576;DHT22;3829;50.798;4.358;2022-12-07T08:17:00;5.10;99.90
7576;DHT22;3829;50.798;4.358;2022-12-07T08:19:25;5.10;99.90
7576;DHT22;3829;50.798;4.358;2022-12-07T08:21:51;5.00;99.90
7576;DHT22;3829;50.798;4.358;2022-12-07T08:24:17;5.00;99.90
7576;DHT22;3829;50.798;4.358;2022-12-07T08:26:43;4.90;99.90
7576;DHT22;3829;50.798;4.358;2022-12-07T08:29:09;4.90;99.90
7576;DHT22;3829;50.798;4.358;2022-12-07T08:31:35;5.00;99.90
7576;DHT22;3829;50.798;4.358;2022-12-07T08:34:00;5.00;99.90
7576;DHT22;3829;50.798;4.358;2022-12-07T08:36:26;5.10;99.90
7576;DHT22;3829;50.798;4.358;2022-12-07T08:38:52;5.00;99.90
7576;DHT22;3829;50.798;4.358;2022-12-07T08:41:18;5.00;99.90
7576;DHT22;3829;50.798;4.358;2022-12-07T08:43:43;4.90;99.90
7576;DHT22;3829;50.798;4.358;2022-12-07T08:51:16;5.20;99.90
7576;DHT22;3829;50.798;4.358;2022-12-07T08:53:42;5.30;99.90
7576;DHT22;3829;50.798;4.358;2022-12-07T08:56:09;5.60;99.90
7576;DHT22;3829;50.798;4.358;2022-12-07T08:58:36;5.70;99.90
7576;DHT22;3829;50.798;4.358;2022-12-07T09:34:25;6.60;99.90
7576;DHT22;3829;50.798;4.358;2022-12-07T09:36:51;6.60;99.90
7576;DHT22;3829;50.798;4.358;2022-12-07T09:39:17;6.70;99.90
7576;DHT22;3829;50.798;4.358;2022-12-07T09:41:44;6.80;99.90
7576;DHT22;3829;50.798;4.358;2022-12-07T09:44:13;6.80;99.90
7576;DHT22;3829;50.798;4.358;2022-12-07T09:46:42;6.80;99.90
7576;DHT22;3829;50.798;4.358;2022-12-07T09:49:19;7.00;99.90
7576;DHT22;3829;50.798;4.358;2022-12-07T09:51:45;7.20;99.90
7576;DHT22;3829;50.798;4.358;2022-12-07T09:54:16;7.50;99.90
7576;DHT22;3829;50.798;4.358;2022-12-07T09:56:43;7.50;99.90
7576;DHT22;3829;50.798;4.358;2022-12-07T09:59:16;7.70;99.90
7576;DHT22;3829;50.798;4.358;2022-12-07T10:01:48;7.70;99.90
7576;DHT22;3829;50.798;4.358;2022-12-07T16:28:28;6.10;99.90
7576;DHT22;3829;50.798;4.358;2022-12-07T16:31:01;6.10;99.90
7576;DHT22;3829;50.798;4.358;2022-12-07T16:33:26;6.10;99.90
7576;DHT22;3829;50.798;4.358;2022-12-07T16:35:52;6.20;99.90
7576;DHT22;3829;50.798;4.358;2022-12-07T16:38:17;6.20;99.90
7576;DHT22;3829;50.798;4.358;2022-12-07T16:40:43;6.30;99.90
7576;DHT22;3829;50.798;4.358;2022-12-07T16:43:11;6.20;99.90
7576;DHT22;3829;50.798;4.358;2022-12-07T16:45:38;6.20;99.90
7576;DHT22;3829;50.798;4.358;2022-12-07T16:48:04;6.20;99.90
7576;DHT22;3829;50.798;4.358;2022-12-07T16:50:30;6.20;99.90
7576;DHT22;3829;50.798;4.358;2022-12-07T16:52:55;6.20;99.90
7576;DHT22;3829;50.798;4.358;2022-12-07T16:55:21;6.20;99.90
7576;DHT22;3829;50.798;4.358;2022-12-07T16:57:46;6.40;99.90
7576;DHT22;3829;50.798;4.358;2022-12-07T17:00:12;6.30;99.90
7576;DHT22;3829;50.798;4.358;2022-12-07T17:02:38;6.30;99.90
7576;DHT22;3829;50.798;4.358;2022-12-07T17:05:04;6.30;99.90
7576;DHT22;3829;50.798;4.358;2022-12-07T17:07:30;6.40;99.90
7576;DHT22;3829;50.798;4.358;2022-12-07T17:09:55;6.40;99.90
7576;DHT22;3829;50.798;4.358;2022-12-07T17:12:21;6.50;99.90
7576;DHT22;3829;50.798;4.358;2022-12-07T17:14:46;6.30;99.90
7576;DHT22;3829;50.798;4.358;2022-12-07T17:17:30;6.30;99.90
7576;DHT22;3829;50.798;4.358;2022-12-07T17:19:56;6.30;99.90
7576;DHT22;3829;50.798;4.358;2022-12-07T17:22:22;6.30;99.90
7576;DHT22;3829;50.798;4.358;2022-12-07T17:24:47;6.30;99.90
7576;DHT22;3829;50.798;4.358;2022-12-07T17:27:13;6.30;99.90
7576;DHT22;3829;50.798;4.358;2022-12-07T17:29:39;6.20;99.90
7576;DHT22;3829;50.798;4.358;2022-12-07T17:32:04;6.30;99.90
7576;DHT22;3829;50.798;4.358;2022-12-07T17:34:30;6.30;99.90
7576;DHT22;3829;50.798;4.358;2022-12-07T17:36:56;6.40;99.90
7576;DHT22;3829;50.798;4.358;2022-12-07T17:39:21;6.30;99.90
7576;DHT22;3829;50.798;4.358;2022-12-07T17:41:47;6.30;99.90
7576;DHT22;3829;50.798;4.358;2022-12-07T17:44:31;6.30;99.90
7576;DHT22;3829;50.798;4.358;2022-12-07T17:46:57;6.30;99.90
7576;DHT22;3829;50.798;4.358;2022-12-07T17:49:24;6.20;99.90
7576;DHT22;3829;50.798;4.358;2022-12-07T17:51:50;6.30;99.90
7576;DHT22;3829;50.798;4.358;2022-12-07T17:54:35;6.40;99.90
7576;DHT22;3829;50.798;4.358;2022-12-07T17:57:01;6.30;99.90
7576;DHT22;3829;50.798;4.358;2022-12-07T17:59:26;6.40;99.90
7576;DHT22;3829;50.798;4.358;2022-12-07T18:01:52;6.20;99.90
7576;DHT22;3829;50.798;4.358;2022-12-07T18:04:18;6.10;99.90
7576;DHT22;3829;50.798;4.358;2022-12-07T18:06:44;6.10;99.90
7576;DHT22;3829;50.798;4.358;2022-12-07T18:09:10;6.10;99.90
7576;DHT22;3829;50.798;4.358;2022-12-07T18:11:36;6.20;99.90
7576;DHT22;3829;50.798;4.358;2022-12-07T18:14:02;6.20;99.90
7576;DHT22;3829;50.798;4.358;2022-12-07T18:16:29;6.20;99.90
7576;DHT22;3829;50.798;4.358;2022-12-07T18:18:59;6.10;99.90
7576;DHT22;3829;50.798;4.358;2022-12-07T18:21:26;6.10;99.90
7576;DHT22;3829;50.798;4.358;2022-12-07T18:23:54;6.00;99.90
7576;DHT22;3829;50.798;4.358;2022-12-07T18:26:22;6.00;99.90
7576;DHT22;3829;50.798;4.358;2022-12-07T18:28:47;6.00;99.90
7576;DHT22;3829;50.798;4.358;2022-12-07T18:31:13;6.00;99.90
7576;DHT22;3829;50.798;4.358;2022-12-07T18:33:40;6.00;99.90
7576;DHT22;3829;50.798;4.358;2022-12-07T18:36:07;6.10;99.90
7576;DHT22;3829;50.798;4.358;2022-12-07T18:38:33;6.10;99.90
7576;DHT22;3829;50.798;4.358;2022-12-07T18:41:00;6.10;99.90
7576;DHT22;3829;50.798;4.358;2022-12-07T18:43:26;6.10;99.90
7576;DHT22;3829;50.798;4.358;2022-12-07T18:45:52;6.10;99.90
7576;DHT22;3829;50.798;4.358;2022-12-07T18:48:19;6.10;99.90
7576;DHT22;3829;50.798;4.358;2022-12-07T18:50:46;6.10;99.90
7576;DHT22;3829;50.798;4.358;2022-12-07T18:53:12;6.00;99.90
7576;DHT22;3829;50.798;4.358;2022-12-07T18:55:38;5.90;99.90
7576;DHT22;3829;50.798;4.358;2022-12-07T18:58:04;5.80;99.90
7576;DHT22;3829;50.798;4.358;2022-12-07T19:00:30;5.70;99.90
7576;DHT22;3829;50.798;4.358;2022-12-07T19:03:00;5.60;99.90
7576;DHT22;3829;50.798;4.358;2022-12-07T19:05:26;5.70;99.90
7576;DHT22;3829;50.798;4.358;2022-12-07T19:07:53;5.70;99.90
7576;DHT22;3829;50.798;4.358;2022-12-07T19:10:19;5.80;99.90
7576;DHT22;3829;50.798;4.358;2022-12-07T19:12:46;5.80;99.90
7576;DHT22;3829;50.798;4.358;2022-12-07T19:15:13;5.70;99.90
7576;DHT22;3829;50.798;4.358;2022-12-07T19:17:39;5.70;99.90
7576;DHT22;3829;50.798;4.358;2022-12-07T19:20:07;5.70;99.90
7576;DHT22;3829;50.798;4.358;2022-12-07T19:22:34;5.80;99.90
7576;DHT22;3829;50.798;4.358;2022-12-07T19:25:00;5.70;99.90
7576;DHT22;3829;50.798;4.358;2022-12-07T19:27:25;5.70;99.90
7576;DHT22;3829;50.798;4.358;2022-12-07T19:29:52;5.70;99.90
7576;DHT22;3829;50.798;4.358;2022-12-07T19:32:18;5.60;99.90
7576;DHT22;3829;50.798;4.358;2022-12-07T19:34:44;5.50;99.90
7576;DHT22;3829;50.798;4.358;2022-12-07T19:37:12;5.60;99.90
7576;DHT22;3829;50.798;4.358;2022-12-07T19:39:41;5.70;99.90
7576;DHT22;3829;50.798;4.358;2022-12-07T19:42:09;5.70;99.90
7576;DHT22;3829;50.798;4.358;2022-12-07T19:44:35;5.80;99.90
7576;DHT22;3829;50.798;4.358;2022-12-07T19:47:02;5.80;99.90
7576;DHT22;3829;50.798;4.358;2022-12-07T19:49:29;5.80;99.90
7576;DHT22;3829;50.798;4.358;2022-12-07T19:51:58;5.80;99.90
7576;DHT22;3829;50.798;4.358;2022-12-07T19:54:26;5.80;99.90
7576;DHT22;3829;50.798;4.358;2022-12-07T19:56:52;5.80;99.90
7576;DHT22;3829;50.798;4.358;2022-12-07T19:59:21;5.70;99.90
7576;DHT22;3829;50.798;4.358;2022-12-07T20:01:46;5.60;99.90
7576;DHT22;3829;50.798;4.358;2022-12-07T20:04:15;5.40;99.90
7576;DHT22;3829;50.798;4.358;2022-12-07T20:06:42;5.30;99.90
7576;DHT22;3829;50.798;4.358;2022-12-07T20:09:08;5.30;99.90
7576;DHT22;3829;50.798;4.358;2022-12-07T20:11:35;5.40;99.90
7576;DHT22;3829;50.798;4.358;2022-12-07T20:14:20;5.40;99.90
7576;DHT22;3829;50.798;4.358;2022-12-07T20:16:46;5.50;99.90
7576;DHT22;3829;50.798;4.358;2022-12-07T20:19:12;5.60;99.90
7576;DHT22;3829;50.798;4.358;2022-12-07T20:21:39;5.60;99.90
7576;DHT22;3829;50.798;4.358;2022-12-07T20:24:06;5.60;99.90
7576;DHT22;3829;50.798;4.358;2022-12-07T20:26:35;5.60;99.90
7576;DHT22;3829;50.798;4.358;2022-12-07T20:29:08;5.70;99.90
7576;DHT22;3829;50.798;4.358;2022-12-07T20:31:34;5.70;99.90
7576;DHT22;3829;50.798;4.358;2022-12-07T20:34:00;5.60;99.90
7576;DHT22;3829;50.798;4.358;2022-12-07T20:36:26;5.60;99.90
7576;DHT22;3829;50.798;4.358;2022-12-07T20:38:52;5.70;99.90
7576;DHT22;3829;50.798;4.358;2022-12-07T20:41:18;5.70;99.90
7576;DHT22;3829;50.798;4.358;2022-12-07T20:44:03;5.70;99.90
7576;DHT22;3829;50.798;4.358;2022-12-07T20:46:28;5.70;99.90
7576;DHT22;3829;50.798;4.358;2022-12-07T20:48:57;5.70;99.90
7576;DHT22;3829;50.798;4.358;2022-12-07T20:51:23;5.70;99.90
7576;DHT22;3829;50.798;4.358;2022-12-07T20:53:48;5.60;99.90
7576;DHT22;3829;50.798;4.358;2022-12-07T20:56:22;5.60;99.90
7576;DHT22;3829;50.798;4.358;2022-12-07T20:58:48;5.60;99.90
7576;DHT22;3829;50.798;4.358;2022-12-07T21:01:13;5.60;99.90
7576;DHT22;3829;50.798;4.358;2022-12-07T21:03:39;5.50;99.90
7576;DHT22;3829;50.798;4.358;2022-12-07T21:06:05;5.50;99.90
7576;DHT22;3829;50.798;4.358;2022-12-07T21:08:31;5.50;99.90
7576;DHT22;3829;50.798;4.358;2022-12-07T21:10:56;5.50;99.90
7576;DHT22;3829;50.798;4.358;2022-12-07T21:13:22;5.30;99.90
7576;DHT22;3829;50.798;4.358;2022-12-07T21:15:48;5.30;99.90
7576;DHT22;3829;50.798;4.358;2022-12-07T21:18:13;5.30;99.90
7576;DHT22;3829;50.798;4.358;2022-12-07T21:20:39;5.30;99.90
7576;DHT22;3829;50.798;4.358;2022-12-07T21:23:04;5.40;99.90
7576;DHT22;3829;50.798;4.358;2022-12-07T21:25:30;5.40;99.90
7576;DHT22;3829;50.798;4.358;2022-12-07T21:27:55;5.40;99.90
7576;DHT22;3829;50.798;4.358;2022-12-07T21:30:23;5.40;99.90
7576;DHT22;3829;50.798;4.358;2022-12-07T21:32:49;5.40;99.90
7576;DHT22;3829;50.798;4.358;2022-12-07T21:35:15;5.50;99.90
7576;DHT22;3829;50.798;4.358;2022-12-07T21:37:41;5.40;99.90
7576;DHT22;3829;50.798;4.358;2022-12-07T21:40:07;5.40;99.90
7576;DHT22;3829;50.798;4.358;2022-12-07T21:42:33;5.30;99.90
7576;DHT22;3829;50.798;4.358;2022-12-07T21:44:58;5.40;99.90
7576;DHT22;3829;50.798;4.358;2022-12-07T21:47:24;5.20;99.90
7576;DHT22;3829;50.798;4.358;2022-12-07T21:49:49;5.20;99.90
7576;DHT22;3829;50.798;4.358;2022-12-07T21:52:15;5.30;99.90
7576;DHT22;3829;50.798;4.358;2022-12-07T21:54:40;5.30;99.90
7576;DHT22;3829;50.798;4.358;2022-12-07T21:57:07;5.40;99.90
7576;DHT22;3829;50.798;4.358;2022-12-07T21:59:32;5.40;99.90
7576;DHT22;3829;50.798;4.358;2022-12-07T22:01:58;5.40;99.90
7576;DHT22;3829;50.798;4.358;2022-12-07T22:04:24;5.50;99.90
7576;DHT22;3829;50.798;4.358;2022-12-07T22:06:51;5.60;99.90
7576;DHT22;3829;50.798;4.358;2022-12-07T22:09:18;5.60;99.90
7576;DHT22;3829;50.798;4.358;2022-12-07T22:11:45;5.50;99.90
7576;DHT22;3829;50.798;4.358;2022-12-07T22:14:10;5.50;99.90
7576;DHT22;3829;50.798;4.358;2022-12-07T22:16:55;5.40;99.90
7576;DHT22;3829;50.798;4.358;2022-12-07T22:19:22;5.40;99.90
7576;DHT22;3829;50.798;4.358;2022-12-07T22:21:47;5.40;99.90
7576;DHT22;3829;50.798;4.358;2022-12-07T22:24:13;5.50;99.90
7576;DHT22;3829;50.798;4.358;2022-12-07T22:26:40;5.50;99.90
7576;DHT22;3829;50.798;4.358;2022-12-07T22:29:07;5.50;99.90
7576;DHT22;3829;50.798;4.358;2022-12-07T22:31:32;5.50;99.90
7576;DHT22;3829;50.798;4.358;2022-12-07T22:33:58;5.50;99.90
7576;DHT22;3829;50.798;4.358;2022-12-07T22:36:24;5.50;99.90
7576;DHT22;3829;50.798;4.358;2022-12-07T22:38:49;5.40;99.90
7576;DHT22;3829;50.798;4.358;2022-12-07T22:41:22;5.40;99.90
7576;DHT22;3829;50.798;4.358;2022-12-07T22:43:48;5.40;99.90
7576;DHT22;3829;50.798;4.358;2022-12-07T22:46:14;5.40;99.90
7576;DHT22;3829;50.798;4.358;2022-12-07T22:48:40;5.50;99.90
7576;DHT22;3829;50.798;4.358;2022-12-07T22:51:05;5.50;99.90
7576;DHT22;3829;50.798;4.358;2022-12-07T22:53:31;5.50;99.90
7576;DHT22;3829;50.798;4.358;2022-12-07T22:55:57;5.50;99.90
7576;DHT22;3829;50.798;4.358;2022-12-07T22:58:23;5.40;99.90
7576;DHT22;3829;50.798;4.358;2022-12-07T23:00:48;5.40;99.90
7576;DHT22;3829;50.798;4.358;2022-12-07T23:03:14;5.40;99.90
7576;DHT22;3829;50.798;4.358;2022-12-07T23:05:48;5.30;99.90
7576;DHT22;3829;50.798;4.358;2022-12-07T23:08:14;5.20;99.90
7576;DHT22;3829;50.798;4.358;2022-12-07T23:10:42;5.10;99.90
7576;DHT22;3829;50.798;4.358;2022-12-07T23:13:13;5.10;99.90
7576;DHT22;3829;50.798;4.358;2022-12-07T23:18:32;5.20;99.90
7576;DHT22;3829;50.798;4.358;2022-12-07T23:20:58;5.20;99.90
7576;DHT22;3829;50.798;4.358;2022-12-07T23:23:24;5.20;99.90
7576;DHT22;3829;50.798;4.358;2022-12-07T23:25:49;5.20;99.90
7576;DHT22;3829;50.798;4.358;2022-12-07T23:28:16;5.30;99.90
7576;DHT22;3829;50.798;4.358;2022-12-07T23:30:41;5.30;99.90
7576;DHT22;3829;50.798;4.358;2022-12-07T23:33:07;5.30;99.90
7576;DHT22;3829;50.798;4.358;2022-12-07T23:35:33;5.20;99.90
7576;DHT22;3829;50.798;4.358;2022-12-07T23:37:58;5.20;99.90
7576;DHT22;3829;50.798;4.358;2022-12-07T23:40:24;5.00;99.90
7576;DHT22;3829;50.798;4.358;2022-12-07T23:42:49;4.90;99.90
7576;DHT22;3829;50.798;4.358;2022-12-07T23:45:15;4.90;99.90
7576;DHT22;3829;50.798;4.358;2022-12-07T23:47:40;4.90;99.90
7576;DHT22;3829;50.798;4.358;2022-12-07T23:50:07;4.80;99.90